Time;durP1;ratioP1;P1;durP2;ratioP2;P2;SDS_P1;SDS_P2;PMS_P1;PMS_P2;Temp;Humidity;BMP_temperature;BMP_pressure;BME280_temperature;BME280_humidity;BME280_pressure;Samples;Min_cycle;Max_cycle;Signal;HPM_P1;HPM_P2
2023/02/19 00:01:32;;;;;;;27.83;10.00;;;;;;;;;;4952493;28;20258;-80
2023/02/19 00:03:59;;;;;;;21.07;8.80;;;;;;;;;;4953994;28;20185;-76
2023/02/19 00:06:25;;;;;;;17.80;8.77;;;;;;;;;;4957408;28;20213;-77
2023/02/19 00:08:50;;;;;;;25.07;9.03;;;;;;;;;;4954539;28;20308;-78
2023/02/19 00:11:17;;;;;;;20.10;9.03;;;;;;;;;;4963174;28;20904;-77
2023/02/19 00:13:43;;;;;;;18.57;8.27;;;;;;;;;;4962993;28;20177;-77
2023/02/19 00:16:11;;;;;;;20.63;8.90;;;;;;;;;;4958969;28;20169;-78
2023/02/19 00:18:36;;;;;;;15.50;8.83;;;;;;;;;;4962061;28;20187;-77
2023/02/19 00:21:02;;;;;;;15.93;8.67;;;;;;;;;;4952792;28;20287;-76
2023/02/19 00:23:28;;;;;;;24.30;10.40;;;;;;;;;;4961757;28;20180;-79
2023/02/19 00:25:53;;;;;;;18.77;8.50;;;;;;;;;;4959739;28;20181;-78
2023/02/19 00:28:18;;;;;;;21.80;10.23;;;;;;;;;;4960710;28;20665;-78
2023/02/19 00:30:44;;;;;;;21.50;9.30;;;;;;;;;;4959909;28;20204;-78
2023/02/19 00:33:09;;;;;;;27.13;8.83;;;;;;;;;;4956534;28;20191;-78
2023/02/19 00:35:34;;;;;;;20.73;7.93;;;;;;;;;;4949534;28;20203;-78
2023/02/19 00:38:00;;;;;;;21.70;7.70;;;;;;;;;;4952994;28;20272;-77
2023/02/19 00:40:25;;;;;;;17.00;7.00;;;;;;;;;;4948937;28;20279;-78
2023/02/19 00:42:51;;;;;;;27.27;8.30;;;;;;;;;;4961346;28;20642;-78
2023/02/19 00:45:17;;;;;;;15.57;5.90;;;;;;;;;;4947851;28;20244;-78
2023/02/19 00:47:42;;;;;;;15.50;5.20;;;;;;;;;;4949478;29;20639;-78
2023/02/19 00:50:07;;;;;;;18.50;4.97;;;;;;;;;;4964242;28;20205;-78
2023/02/19 00:52:32;;;;;;;11.87;4.23;;;;;;;;;;4948435;29;20545;-77
2023/02/19 00:54:58;;;;;;;20.93;4.67;;;;;;;;;;4950236;28;20177;-77
2023/02/19 00:57:23;;;;;;;15.40;5.10;;;;;;;;;;4947079;29;20197;-78
2023/02/19 00:59:48;;;;;;;11.70;3.73;;;;;;;;;;4948284;28;20219;-78
2023/02/19 01:02:13;;;;;;;16.67;4.17;;;;;;;;;;4947835;28;20181;-78
2023/02/19 01:04:38;;;;;;;15.10;4.00;;;;;;;;;;4962064;28;20678;-77
2023/02/19 01:07:04;;;;;;;13.87;4.70;;;;;;;;;;4951426;28;20288;-78
2023/02/19 01:09:29;;;;;;;14.60;4.13;;;;;;;;;;4950596;28;20291;-77
2023/02/19 01:11:54;;;;;;;22.63;6.20;;;;;;;;;;4953541;28;20639;-77
2023/02/19 01:14:19;;;;;;;15.83;4.83;;;;;;;;;;4954165;28;20185;-78
2023/02/19 01:16:44;;;;;;;11.37;3.73;;;;;;;;;;4946357;28;20177;-78
2023/02/19 01:19:10;;;;;;;11.67;4.40;;;;;;;;;;4948310;28;20221;-77
2023/02/19 01:21:35;;;;;;;14.63;4.90;;;;;;;;;;4948521;28;20180;-77
2023/02/19 01:24:00;;;;;;;8.37;3.67;;;;;;;;;;4947096;29;20185;-78
2023/02/19 01:26:27;;;;;;;16.67;4.80;;;;;;;;;;4946416;28;20181;-78
2023/02/19 01:28:52;;;;;;;15.53;4.00;;;;;;;;;;4945499;28;20930;-75
2023/02/19 01:31:19;;;;;;;13.60;4.40;;;;;;;;;;4946781;28;20574;-77
2023/02/19 01:33:45;;;;;;;12.37;4.10;;;;;;;;;;4943544;28;20663;-78
2023/02/19 01:36:11;;;;;;;10.23;4.33;;;;;;;;;;4946779;28;20192;-79
2023/02/19 01:38:36;;;;;;;9.27;3.80;;;;;;;;;;4952821;28;20173;-78
2023/02/19 01:41:03;;;;;;;17.13;4.93;;;;;;;;;;4949874;29;20207;-76
2023/02/19 01:43:30;;;;;;;16.63;3.93;;;;;;;;;;4943663;28;20963;-79
2023/02/19 01:45:55;;;;;;;17.43;5.27;;;;;;;;;;4950225;29;20262;-78
2023/02/19 01:48:26;;;;;;;17.17;4.43;;;;;;;;;;4949272;28;20616;-78
2023/02/19 01:50:56;;;;;;;9.40;3.37;;;;;;;;;;4947171;28;20367;-78
2023/02/19 01:53:24;;;;;;;13.70;4.10;;;;;;;;;;4948438;28;20185;-77
2023/02/19 01:55:51;;;;;;;14.03;4.83;;;;;;;;;;4955165;28;20173;-77
2023/02/19 01:58:17;;;;;;;10.80;3.70;;;;;;;;;;4954799;28;20260;-78
2023/02/19 02:00:42;;;;;;;12.50;4.00;;;;;;;;;;4954501;28;20284;-77
2023/02/19 02:03:07;;;;;;;14.67;3.53;;;;;;;;;;4946999;28;20239;-77
2023/02/19 02:05:55;;;;;;;7.03;3.20;;;;;;;;;;4959395;28;20184;-77
2023/02/19 02:11:05;;;;;;;13.57;4.40;;;;;;;;;;4952586;28;20267;-77
2023/02/19 02:13:31;;;;;;;10.40;4.10;;;;;;;;;;4951197;28;20177;-78
2023/02/19 02:16:07;;;;;;;9.13;3.90;;;;;;;;;;4953048;28;20220;-78
2023/02/19 02:18:41;;;;;;;15.60;3.80;;;;;;;;;;4954244;28;20184;-78
2023/02/19 02:21:44;;;;;;;10.30;3.23;;;;;;;;;;4949158;28;20702;-78
2023/02/19 02:24:16;;;;;;;9.93;2.90;;;;;;;;;;4983694;28;20192;-78
2023/02/19 02:26:58;;;;;;;9.83;3.57;;;;;;;;;;4971513;28;20194;-76
2023/02/19 02:29:42;;;;;;;12.10;4.03;;;;;;;;;;4958236;28;20280;-77
2023/02/19 02:32:11;;;;;;;8.67;3.40;;;;;;;;;;4950915;28;20205;-77
2023/02/19 02:34:40;;;;;;;8.37;3.53;;;;;;;;;;4947528;28;20303;-77
2023/02/19 02:37:06;;;;;;;12.80;5.07;;;;;;;;;;4966607;28;20203;-77
2023/02/19 02:39:32;;;;;;;9.67;3.40;;;;;;;;;;4950182;28;20239;-76
2023/02/19 02:45:33;;;;;;;11.00;3.50;;;;;;;;;;4949119;28;20188;-77
2023/02/19 02:47:41;;;;;;;11.73;3.97;;;;;;;;;;4947471;28;20391;-77
2023/02/19 02:50:08;;;;;;;14.43;3.77;;;;;;;;;;4961084;28;20558;-77
2023/02/19 02:55:20;;;;;;;11.97;4.40;;;;;;;;;;4945157;28;20328;-77
2023/02/19 02:57:45;;;;;;;12.93;3.73;;;;;;;;;;4944312;29;20623;-77
2023/02/19 03:00:11;;;;;;;19.30;3.73;;;;;;;;;;4945041;28;20256;-77
2023/02/19 03:02:36;;;;;;;17.37;5.73;;;;;;;;;;4944024;28;20188;-78
2023/02/19 03:08:02;;;;;;;9.33;3.17;;;;;;;;;;4944988;29;20263;-77
2023/02/19 03:10:31;;;;;;;11.50;3.13;;;;;;;;;;4950808;28;20224;-76
2023/02/19 03:21:18;;;;;;;15.47;5.27;;;;;;;;;;4952123;28;20259;-77
2023/02/19 03:26:29;;;;;;;13.83;3.27;;;;;;;;;;4950865;28;20284;-77
2023/02/19 03:31:39;;;;;;;11.43;3.90;;;;;;;;;;4950172;28;20183;-77
2023/02/19 03:34:09;;;;;;;19.53;4.93;;;;;;;;;;4952418;28;20558;-77
2023/02/19 03:36:36;;;;;;;10.33;4.27;;;;;;;;;;4955761;28;20169;-77
2023/02/19 03:39:06;;;;;;;9.43;3.30;;;;;;;;;;4953275;28;20196;-77
2023/02/19 03:41:52;;;;;;;7.97;3.80;;;;;;;;;;4947126;29;20721;-77
2023/02/19 03:44:31;;;;;;;15.37;3.80;;;;;;;;;;4947831;29;20220;-76
2023/02/19 03:47:03;;;;;;;9.40;2.80;;;;;;;;;;4961301;28;20192;-77
2023/02/19 03:49:32;;;;;;;15.70;3.23;;;;;;;;;;4959547;28;20447;-77
2023/02/19 03:52:15;;;;;;;13.47;3.93;;;;;;;;;;4944483;28;20248;-77
2023/02/19 03:54:51;;;;;;;10.30;3.30;;;;;;;;;;4959662;28;20193;-77
2023/02/19 03:57:22;;;;;;;13.33;3.80;;;;;;;;;;4948149;28;20185;-76
2023/02/19 03:59:50;;;;;;;10.97;3.80;;;;;;;;;;4949869;28;20217;-77
2023/02/19 04:02:25;;;;;;;11.57;3.73;;;;;;;;;;4947666;28;20185;-77
2023/02/19 04:04:54;;;;;;;12.20;3.87;;;;;;;;;;4947590;28;20192;-77
2023/02/19 04:07:20;;;;;;;10.53;3.53;;;;;;;;;;4946462;28;20208;-77
2023/02/19 04:12:13;;;;;;;10.40;3.63;;;;;;;;;;4965205;28;20220;-73
2023/02/19 04:14:43;;;;;;;16.73;4.63;;;;;;;;;;4975161;28;20172;-73
2023/02/19 04:17:12;;;;;;;14.17;4.40;;;;;;;;;;4972957;28;20263;-75
2023/02/19 04:19:39;;;;;;;11.70;4.33;;;;;;;;;;4966083;28;20451;-73
2023/02/19 04:22:05;;;;;;;13.63;4.53;;;;;;;;;;4975351;28;20180;-74
2023/02/19 04:24:33;;;;;;;13.90;4.03;;;;;;;;;;4972730;28;20215;-74
2023/02/19 04:26:58;;;;;;;10.90;3.97;;;;;;;;;;4970551;28;20244;-73
2023/02/19 04:29:24;;;;;;;10.03;3.47;;;;;;;;;;4970906;28;20184;-73
2023/02/19 04:31:49;;;;;;;11.37;4.03;;;;;;;;;;4970452;28;20200;-73
2023/02/19 04:34:14;;;;;;;8.67;3.13;;;;;;;;;;4968244;28;20172;-73
2023/02/19 04:36:39;;;;;;;12.73;3.67;;;;;;;;;;4964720;28;20538;-73
2023/02/19 04:39:06;;;;;;;13.17;3.40;;;;;;;;;;4970135;28;20646;-75
2023/02/19 04:41:32;;;;;;;8.97;3.53;;;;;;;;;;4990307;28;20208;-75
2023/02/19 04:43:57;;;;;;;14.73;4.03;;;;;;;;;;4967867;28;20239;-76
2023/02/19 04:46:22;;;;;;;10.50;3.00;;;;;;;;;;4975305;28;20383;-75
2023/02/19 04:48:47;;;;;;;8.83;4.10;;;;;;;;;;4973460;28;20595;-75
2023/02/19 04:51:13;;;;;;;11.67;3.07;;;;;;;;;;4970923;28;20284;-74
2023/02/19 04:53:38;;;;;;;9.70;3.23;;;;;;;;;;4971844;28;20287;-75
2023/02/19 04:56:07;;;;;;;14.60;3.20;;;;;;;;;;4978182;28;20219;-74
2023/02/19 04:58:32;;;;;;;19.73;3.70;;;;;;;;;;4981786;28;20204;-75
2023/02/19 05:00:57;;;;;;;13.07;3.20;;;;;;;;;;4981552;28;20265;-74
2023/02/19 05:03:22;;;;;;;11.07;3.10;;;;;;;;;;4978101;28;20572;-74
2023/02/19 05:05:47;;;;;;;14.47;4.50;;;;;;;;;;4974269;28;20195;-74
2023/02/19 05:08:13;;;;;;;11.93;3.77;;;;;;;;;;4985077;28;20302;-74
2023/02/19 05:10:38;;;;;;;15.33;5.27;;;;;;;;;;4973460;28;20223;-72
2023/02/19 05:13:03;;;;;;;11.17;3.80;;;;;;;;;;4984383;28;20184;-72
2023/02/19 05:15:28;;;;;;;12.20;3.43;;;;;;;;;;4973960;28;20183;-76
2023/02/19 05:17:53;;;;;;;7.77;3.60;;;;;;;;;;4977494;28;20187;-72
2023/02/19 05:20:21;;;;;;;12.13;3.97;;;;;;;;;;4974506;28;20199;-74
2023/02/19 05:22:46;;;;;;;13.17;3.67;;;;;;;;;;4971382;28;20580;-73
2023/02/19 05:25:11;;;;;;;13.83;3.90;;;;;;;;;;4973165;28;20235;-74
2023/02/19 05:27:36;;;;;;;12.53;4.33;;;;;;;;;;4987593;28;20208;-72
2023/02/19 05:30:02;;;;;;;10.10;3.77;;;;;;;;;;4974701;28;20224;-73
2023/02/19 05:32:27;;;;;;;7.87;2.90;;;;;;;;;;4971106;28;20263;-72
2023/02/19 05:34:52;;;;;;;10.97;3.37;;;;;;;;;;4972275;28;20180;-73
2023/02/19 05:37:17;;;;;;;10.90;3.67;;;;;;;;;;4972348;28;20235;-74
2023/02/19 05:39:42;;;;;;;10.30;4.53;;;;;;;;;;4973109;28;20183;-73
2023/02/19 05:42:08;;;;;;;9.50;3.40;;;;;;;;;;4962689;28;20176;-74
2023/02/19 05:44:33;;;;;;;12.80;3.93;;;;;;;;;;4971839;28;20239;-74
2023/02/19 05:46:58;;;;;;;16.97;3.87;;;;;;;;;;4976314;28;20184;-74
2023/02/19 05:49:23;;;;;;;13.77;5.07;;;;;;;;;;4972846;28;20542;-74
2023/02/19 05:51:49;;;;;;;16.73;4.53;;;;;;;;;;4970523;28;20236;-73
2023/02/19 05:54:14;;;;;;;12.27;3.70;;;;;;;;;;4971114;28;20275;-73
2023/02/19 05:56:40;;;;;;;11.83;3.47;;;;;;;;;;4969264;28;20607;-74
2023/02/19 05:59:15;;;;;;;13.00;3.53;;;;;;;;;;4969965;28;20188;-73
2023/02/19 06:01:40;;;;;;;12.47;3.40;;;;;;;;;;4973341;28;20233;-73
2023/02/19 06:04:05;;;;;;;14.33;4.07;;;;;;;;;;4974170;28;20219;-74
2023/02/19 06:06:30;;;;;;;11.17;3.70;;;;;;;;;;4970490;28;20180;-73
2023/02/19 06:08:55;;;;;;;11.40;4.13;;;;;;;;;;4972740;28;20673;-73
2023/02/19 06:11:21;;;;;;;11.43;3.40;;;;;;;;;;4969658;28;20311;-73
2023/02/19 06:13:48;;;;;;;9.60;3.83;;;;;;;;;;4972932;28;20547;-73
2023/02/19 06:16:16;;;;;;;8.03;4.23;;;;;;;;;;4971220;28;20640;-74
2023/02/19 06:18:41;;;;;;;8.10;3.37;;;;;;;;;;4966957;28;20326;-73
2023/02/19 06:21:07;;;;;;;9.93;4.13;;;;;;;;;;4965248;28;20294;-73
2023/02/19 06:23:33;;;;;;;7.43;3.90;;;;;;;;;;4964500;28;20184;-74
2023/02/19 06:26:12;;;;;;;9.70;4.20;;;;;;;;;;4966006;28;20187;-73
2023/02/19 06:28:38;;;;;;;7.00;3.90;;;;;;;;;;4966308;28;20270;-73
2023/02/19 06:31:04;;;;;;;12.03;4.73;;;;;;;;;;4966272;28;20219;-73
2023/02/19 06:33:29;;;;;;;10.23;3.67;;;;;;;;;;4973993;28;21944;-73
2023/02/19 06:35:56;;;;;;;10.73;4.33;;;;;;;;;;4975096;28;20192;-73
2023/02/19 06:38:22;;;;;;;16.60;5.27;;;;;;;;;;4968884;28;20184;-74
2023/02/19 06:40:47;;;;;;;14.23;4.67;;;;;;;;;;4970312;28;20215;-74
2023/02/19 06:43:12;;;;;;;12.27;4.20;;;;;;;;;;4973194;28;20188;-73
2023/02/19 06:45:37;;;;;;;14.27;6.50;;;;;;;;;;4969821;28;20713;-74
2023/02/19 06:48:02;;;;;;;10.50;4.70;;;;;;;;;;4974487;28;20215;-72
2023/02/19 06:50:28;;;;;;;12.07;4.70;;;;;;;;;;4973387;28;20275;-73
2023/02/19 06:52:53;;;;;;;13.50;4.80;;;;;;;;;;4969577;28;20190;-73
2023/02/19 06:55:18;;;;;;;12.53;4.63;;;;;;;;;;4972682;28;20184;-73
2023/02/19 06:57:43;;;;;;;9.57;4.33;;;;;;;;;;4974628;28;20568;-72
2023/02/19 07:00:09;;;;;;;15.13;4.60;;;;;;;;;;4968805;28;20200;-73
2023/02/19 07:02:34;;;;;;;13.77;4.57;;;;;;;;;;4974003;28;20204;-72
2023/02/19 07:04:59;;;;;;;10.37;4.73;;;;;;;;;;4967669;28;20195;-72
2023/02/19 07:07:24;;;;;;;16.27;5.67;;;;;;;;;;4968685;28;20211;-75
2023/02/19 07:09:50;;;;;;;14.53;4.80;;;;;;;;;;4964680;28;20176;-72
2023/02/19 07:12:15;;;;;;;12.63;4.57;;;;;;;;;;4965586;28;20193;-73
2023/02/19 07:14:40;;;;;;;14.90;4.60;;;;;;;;;;4965849;28;20180;-72
2023/02/19 07:17:05;;;;;;;15.53;5.20;;;;;;;;;;4964362;28;20192;-72
2023/02/19 07:19:30;;;;;;;15.77;4.97;;;;;;;;;;4963549;28;20177;-74
2023/02/19 07:21:56;;;;;;;11.70;5.20;;;;;;;;;;4980560;28;20215;-73
2023/02/19 07:24:21;;;;;;;13.60;4.90;;;;;;;;;;4975148;28;20516;-72
2023/02/19 07:26:46;;;;;;;16.47;7.30;;;;;;;;;;4970407;28;20211;-74
2023/02/19 07:29:11;;;;;;;13.70;5.77;;;;;;;;;;4968873;28;20216;-72
2023/02/19 07:31:37;;;;;;;11.47;6.30;;;;;;;;;;4968313;28;20244;-73
2023/02/19 07:34:02;;;;;;;15.93;6.37;;;;;;;;;;4970147;28;20643;-73
2023/02/19 07:36:27;;;;;;;18.23;6.07;;;;;;;;;;4966602;28;20480;-73
2023/02/19 07:38:54;;;;;;;12.23;6.37;;;;;;;;;;4969550;28;20179;-72
2023/02/19 07:41:19;;;;;;;14.50;5.73;;;;;;;;;;4965196;28;20635;-72
2023/02/19 07:43:44;;;;;;;14.93;5.60;;;;;;;;;;4970855;28;20275;-73
2023/02/19 07:46:11;;;;;;;11.87;5.67;;;;;;;;;;4970976;28;20522;-72
2023/02/19 07:48:37;;;;;;;12.57;5.30;;;;;;;;;;4971380;28;20236;-73
2023/02/19 07:51:03;;;;;;;10.33;5.00;;;;;;;;;;4991550;28;20235;-73
2023/02/19 07:53:28;;;;;;;15.87;7.10;;;;;;;;;;4964594;28;20180;-73
2023/02/19 07:55:57;;;;;;;11.97;5.93;;;;;;;;;;4970329;28;20203;-73
2023/02/19 07:58:22;;;;;;;14.07;5.57;;;;;;;;;;4968424;28;20183;-73
2023/02/19 08:00:47;;;;;;;14.57;7.60;;;;;;;;;;4965838;28;20219;-73
2023/02/19 08:03:13;;;;;;;13.43;5.07;;;;;;;;;;4973677;28;20560;-73
2023/02/19 08:05:41;;;;;;;9.73;4.93;;;;;;;;;;4976199;28;20348;-73
2023/02/19 08:08:07;;;;;;;9.73;5.07;;;;;;;;;;4969810;28;20200;-72
2023/02/19 08:13:24;;;;;;;12.83;5.20;;;;;;;;;;4973027;28;20610;-73
2023/02/19 08:15:49;;;;;;;11.67;5.17;;;;;;;;;;4977991;28;20176;-73
2023/02/19 08:18:15;;;;;;;15.57;5.63;;;;;;;;;;4964815;28;20180;-72
2023/02/19 08:20:40;;;;;;;7.30;4.80;;;;;;;;;;4967403;28;20399;-73
2023/02/19 08:23:06;;;;;;;10.47;5.50;;;;;;;;;;4970473;28;20180;-73
2023/02/19 08:25:31;;;;;;;10.07;4.83;;;;;;;;;;4973597;28;20653;-73
2023/02/19 08:27:59;;;;;;;10.47;4.53;;;;;;;;;;4973672;28;20673;-72
2023/02/19 08:30:24;;;;;;;11.73;5.23;;;;;;;;;;4973933;28;20584;-73
2023/02/19 08:32:49;;;;;;;10.53;5.50;;;;;;;;;;4979501;28;20192;-73
2023/02/19 08:35:15;;;;;;;14.33;6.43;;;;;;;;;;4968712;28;20180;-73
2023/02/19 08:37:40;;;;;;;13.80;4.87;;;;;;;;;;4970157;28;21079;-73
2023/02/19 08:40:05;;;;;;;10.77;5.23;;;;;;;;;;4974940;28;20196;-73
2023/02/19 08:42:30;;;;;;;10.80;5.17;;;;;;;;;;4971864;28;20682;-73
2023/02/19 08:44:55;;;;;;;10.77;5.20;;;;;;;;;;4970952;28;20189;-73
2023/02/19 08:47:21;;;;;;;11.23;5.13;;;;;;;;;;4972776;28;20204;-73
2023/02/19 08:49:46;;;;;;;10.60;5.00;;;;;;;;;;4977889;28;20299;-72
2023/02/19 08:52:11;;;;;;;12.70;5.67;;;;;;;;;;4971709;28;20184;-73
2023/02/19 08:54:36;;;;;;;9.23;4.37;;;;;;;;;;4974714;28;20176;-72
2023/02/19 08:57:03;;;;;;;13.40;5.93;;;;;;;;;;4974371;28;20172;-72
2023/02/19 08:59:29;;;;;;;10.23;5.33;;;;;;;;;;4972398;28;20268;-73
2023/02/19 09:01:54;;;;;;;10.20;5.40;;;;;;;;;;4975566;28;20220;-73
2023/02/19 09:04:19;;;;;;;14.93;5.33;;;;;;;;;;5001306;28;20172;-72
2023/02/19 09:06:44;;;;;;;11.13;5.03;;;;;;;;;;4972773;28;20780;-72
2023/02/19 09:09:10;;;;;;;15.67;5.97;;;;;;;;;;4973443;28;21748;-74
2023/02/19 09:11:37;;;;;;;13.10;5.17;;;;;;;;;;4967482;28;20200;-75
2023/02/19 09:14:06;;;;;;;14.70;6.73;;;;;;;;;;4971285;28;20176;-74
2023/02/19 09:16:31;;;;;;;13.70;5.20;;;;;;;;;;4971109;28;20180;-73
2023/02/19 09:18:56;;;;;;;10.87;5.47;;;;;;;;;;4969852;28;20250;-72
2023/02/19 09:21:21;;;;;;;13.90;5.73;;;;;;;;;;4970779;28;20200;-72
2023/02/19 09:23:47;;;;;;;14.43;5.27;;;;;;;;;;4969753;28;20195;-72
2023/02/19 09:26:12;;;;;;;9.73;5.23;;;;;;;;;;4968489;28;20177;-73
2023/02/19 09:28:40;;;;;;;11.30;5.00;;;;;;;;;;4969057;28;20657;-72
2023/02/19 09:31:06;;;;;;;10.13;4.60;;;;;;;;;;4970873;28;20204;-73
2023/02/19 09:33:31;;;;;;;9.30;5.23;;;;;;;;;;4973482;28;20180;-73
2023/02/19 09:36:00;;;;;;;12.17;5.07;;;;;;;;;;4970347;28;20184;-74
2023/02/19 09:38:25;;;;;;;15.07;6.30;;;;;;;;;;4976605;28;20184;-74
2023/02/19 09:40:51;;;;;;;12.90;6.93;;;;;;;;;;4966457;28;20230;-74
2023/02/19 09:43:21;;;;;;;14.80;5.80;;;;;;;;;;4966664;28;20191;-73
2023/02/19 09:45:46;;;;;;;11.27;5.67;;;;;;;;;;4967411;28;20181;-74
2023/02/19 09:48:11;;;;;;;8.20;5.37;;;;;;;;;;4966574;28;20716;-74
2023/02/19 09:50:39;;;;;;;11.87;5.20;;;;;;;;;;4966684;28;20291;-74
2023/02/19 09:53:10;;;;;;;11.60;5.27;;;;;;;;;;4966499;28;20184;-73
2023/02/19 09:55:37;;;;;;;9.17;5.00;;;;;;;;;;4968765;28;20219;-74
2023/02/19 09:58:11;;;;;;;13.97;5.80;;;;;;;;;;4967387;28;20238;-73
2023/02/19 10:00:36;;;;;;;14.07;5.63;;;;;;;;;;4966842;28;20751;-73
2023/02/19 10:03:09;;;;;;;14.63;6.73;;;;;;;;;;4966208;28;20184;-74
2023/02/19 10:05:35;;;;;;;14.07;4.90;;;;;;;;;;4966328;28;20176;-74
2023/02/19 10:08:03;;;;;;;12.27;5.87;;;;;;;;;;4966475;28;20207;-74
2023/02/19 10:10:33;;;;;;;10.30;5.23;;;;;;;;;;4992044;23;20211;-78
2023/02/19 10:13:08;;;;;;;10.90;4.23;;;;;;;;;;4955284;28;20181;-77
2023/02/19 10:15:37;;;;;;;9.13;3.43;;;;;;;;;;4960045;28;20175;-78
2023/02/19 10:18:03;;;;;;;16.60;4.90;;;;;;;;;;4955621;28;20177;-78
2023/02/19 10:20:28;;;;;;;13.43;4.00;;;;;;;;;;4966663;28;20291;-78
2023/02/19 10:23:04;;;;;;;13.63;3.80;;;;;;;;;;4964776;28;20219;-78
2023/02/19 10:25:30;;;;;;;11.03;3.67;;;;;;;;;;4961958;28;20180;-77
2023/02/19 10:27:59;;;;;;;9.33;3.43;;;;;;;;;;4961371;28;20207;-78
2023/02/19 10:30:28;;;;;;;11.00;2.90;;;;;;;;;;4962058;28;20176;-78
2023/02/19 10:32:59;;;;;;;13.60;3.80;;;;;;;;;;4970491;28;20196;-77
2023/02/19 10:35:24;;;;;;;8.63;2.80;;;;;;;;;;4971499;28;20654;-77
2023/02/19 10:37:50;;;;;;;10.30;2.80;;;;;;;;;;4971542;28;20194;-77
2023/02/19 10:40:16;;;;;;;10.17;2.97;;;;;;;;;;4962813;28;20235;-78
2023/02/19 10:42:49;;;;;;;9.13;2.83;;;;;;;;;;4965711;28;20195;-79
2023/02/19 10:45:21;;;;;;;5.23;2.40;;;;;;;;;;4964574;28;20173;-79
2023/02/19 10:47:47;;;;;;;7.17;2.10;;;;;;;;;;4963298;28;20190;-79
2023/02/19 10:50:22;;;;;;;4.57;1.77;;;;;;;;;;4964361;28;20208;-78
2023/02/19 10:52:50;;;;;;;5.90;2.53;;;;;;;;;;4962007;28;20211;-78
2023/02/19 10:55:24;;;;;;;4.83;2.10;;;;;;;;;;4964251;28;20207;-78
2023/02/19 10:57:49;;;;;;;6.70;1.90;;;;;;;;;;4952830;28;20537;-77
2023/02/19 11:00:15;;;;;;;3.43;1.70;;;;;;;;;;4961676;28;20177;-77
2023/02/19 11:02:41;;;;;;;7.63;1.97;;;;;;;;;;4959969;28;20721;-77
2023/02/19 11:05:15;;;;;;;3.80;1.47;;;;;;;;;;4958949;28;20233;-78
2023/02/19 11:07:45;;;;;;;4.23;1.67;;;;;;;;;;4961746;28;20271;-78
2023/02/19 11:10:19;;;;;;;3.23;1.57;;;;;;;;;;4960492;28;20211;-77
2023/02/19 11:12:46;;;;;;;7.60;2.00;;;;;;;;;;4965321;28;20206;-77
2023/02/19 11:15:19;;;;;;;4.57;1.60;;;;;;;;;;4964637;28;20717;-78
2023/02/19 11:17:44;;;;;;;3.17;1.57;;;;;;;;;;4966617;28;20192;-77
2023/02/19 11:20:14;;;;;;;3.20;1.30;;;;;;;;;;4963360;28;20188;-77
2023/02/19 11:22:41;;;;;;;6.17;1.37;;;;;;;;;;4961528;28;20192;-77
2023/02/19 11:25:09;;;;;;;2.70;1.17;;;;;;;;;;4962157;28;20184;-78
2023/02/19 11:27:34;;;;;;;3.73;1.40;;;;;;;;;;4964728;28;20234;-78
2023/02/19 11:30:20;;;;;;;3.57;1.20;;;;;;;;;;4967310;28;20216;-79
2023/02/19 11:32:45;;;;;;;6.47;1.63;;;;;;;;;;4961417;28;20192;-76
2023/02/19 11:35:21;;;;;;;1.70;1.10;;;;;;;;;;4967393;28;20829;-76
2023/02/19 11:37:54;;;;;;;6.53;2.13;;;;;;;;;;4958465;28;20229;-76
2023/02/19 11:40:22;;;;;;;2.03;1.43;;;;;;;;;;4960285;28;20539;-76
2023/02/19 11:42:58;;;;;;;6.53;1.20;;;;;;;;;;4961845;28;20271;-78
2023/02/19 11:45:35;;;;;;;2.50;1.30;;;;;;;;;;4956300;28;20187;-78
2023/02/19 11:48:06;;;;;;;3.37;1.63;;;;;;;;;;4959761;28;20213;-78
2023/02/19 11:50:50;;;;;;;2.43;1.10;;;;;;;;;;4957928;28;20200;-78
2023/02/19 11:53:24;;;;;;;3.10;1.20;;;;;;;;;;4961366;28;20172;-78
2023/02/19 11:55:52;;;;;;;3.37;1.33;;;;;;;;;;4961830;28;20186;-77
2023/02/19 11:58:23;;;;;;;4.10;1.20;;;;;;;;;;4964685;28;20188;-78
2023/02/19 12:00:53;;;;;;;10.57;1.80;;;;;;;;;;4969011;28;20201;-77
2023/02/19 12:03:42;;;;;;;2.90;1.40;;;;;;;;;;4966702;28;20242;-78
2023/02/19 12:06:14;;;;;;;3.67;1.67;;;;;;;;;;4971020;28;20633;-77
2023/02/19 12:08:51;;;;;;;6.43;2.00;;;;;;;;;;4971196;28;20295;-77
2023/02/19 12:11:35;;;;;;;3.03;1.93;;;;;;;;;;4964525;28;20270;-78
2023/02/19 12:14:15;;;;;;;3.90;1.63;;;;;;;;;;4964862;28;20173;-78
2023/02/19 12:16:55;;;;;;;3.57;1.70;;;;;;;;;;4971128;28;20184;-77
2023/02/19 12:19:34;;;;;;;5.73;1.40;;;;;;;;;;4969656;28;20199;-77
2023/02/19 12:22:09;;;;;;;5.27;1.57;;;;;;;;;;4987466;28;20277;-77
2023/02/19 12:24:51;;;;;;;5.77;1.57;;;;;;;;;;4973890;28;20227;-77
2023/02/19 12:27:17;;;;;;;3.20;1.60;;;;;;;;;;4972383;28;20193;-78
2023/02/19 12:29:42;;;;;;;2.37;1.17;;;;;;;;;;4966030;28;20180;-78
2023/02/19 12:32:13;;;;;;;2.23;1.20;;;;;;;;;;4963678;28;20274;-78
2023/02/19 12:34:57;;;;;;;5.00;1.60;;;;;;;;;;4990338;28;20191;-77
2023/02/19 12:37:41;;;;;;;3.50;1.77;;;;;;;;;;4977728;28;20177;-78
2023/02/19 12:40:30;;;;;;;3.53;1.43;;;;;;;;;;4969943;28;20176;-77
2023/02/19 12:43:01;;;;;;;3.03;1.20;;;;;;;;;;4975009;28;20235;-78
2023/02/19 12:45:44;;;;;;;2.50;1.43;;;;;;;;;;4969736;28;20176;-78
2023/02/19 12:48:10;;;;;;;3.77;1.73;;;;;;;;;;4972528;28;20666;-78
2023/02/19 12:50:38;;;;;;;3.50;2.00;;;;;;;;;;4973814;28;20300;-76
2023/02/19 12:53:26;;;;;;;5.47;3.00;;;;;;;;;;4976000;28;20187;-76
2023/02/19 12:55:52;;;;;;;4.47;2.83;;;;;;;;;;4968164;28;20188;-79
2023/02/19 12:58:36;;;;;;;3.73;2.27;;;;;;;;;;4973725;28;20662;-79
2023/02/19 13:01:02;;;;;;;3.57;2.73;;;;;;;;;;4964922;28;20200;-79
2023/02/19 13:03:40;;;;;;;3.07;2.30;;;;;;;;;;4971226;28;20219;-79
2023/02/19 13:06:14;;;;;;;2.50;2.20;;;;;;;;;;4974500;28;20232;-79
2023/02/19 13:08:42;;;;;;;3.17;2.10;;;;;;;;;;4964291;28;20206;-78
2023/02/19 13:11:15;;;;;;;4.10;2.60;;;;;;;;;;4978952;28;20233;-78
2023/02/19 13:13:46;;;;;;;3.63;2.20;;;;;;;;;;4967210;28;20202;-78
2023/02/19 13:16:14;;;;;;;6.10;2.53;;;;;;;;;;4968144;28;20231;-77
2023/02/19 13:18:47;;;;;;;2.80;2.50;;;;;;;;;;4964660;28;20203;-77
2023/02/19 13:23:57;;;;;;;3.43;2.50;;;;;;;;;;4973130;28;20295;-77
2023/02/19 13:23:59;;;;;;;2.73;2.23;;;;;;;;;;4969867;28;20211;-77
2023/02/19 13:26:30;;;;;;;3.60;2.27;;;;;;;;;;4973317;28;20646;-77
2023/02/19 13:29:18;;;;;;;3.60;2.50;;;;;;;;;;4973224;28;20204;-77
2023/02/19 13:31:44;;;;;;;4.37;2.57;;;;;;;;;;4965621;28;20219;-77
2023/02/19 13:34:21;;;;;;;4.33;2.60;;;;;;;;;;4974131;28;20181;-78
2023/02/19 13:36:47;;;;;;;3.90;2.53;;;;;;;;;;4978888;28;20641;-78
2023/02/19 13:39:13;;;;;;;4.77;3.20;;;;;;;;;;4975461;28;20183;-78
2023/02/19 13:41:40;;;;;;;5.83;3.10;;;;;;;;;;4985719;28;20232;-76
2023/02/19 13:44:07;;;;;;;4.77;3.37;;;;;;;;;;4964986;28;20290;-77
2023/02/19 13:46:40;;;;;;;5.10;3.07;;;;;;;;;;4968455;28;20694;-76
2023/02/19 13:49:24;;;;;;;4.17;2.77;;;;;;;;;;4970208;28;20612;-76
2023/02/19 13:51:50;;;;;;;4.40;3.23;;;;;;;;;;4973102;28;20207;-76
2023/02/19 13:54:29;;;;;;;5.10;2.60;;;;;;;;;;4980869;28;20175;-76
2023/02/19 13:57:13;;;;;;;3.83;2.73;;;;;;;;;;4963476;28;20675;-76
2023/02/19 13:59:39;;;;;;;3.93;2.90;;;;;;;;;;4962299;28;20226;-77
2023/02/19 14:02:08;;;;;;;4.90;2.30;;;;;;;;;;4971067;28;20598;-77
2023/02/19 14:04:49;;;;;;;3.97;2.60;;;;;;;;;;4966469;28;20569;-77
2023/02/19 14:07:14;;;;;;;3.40;2.70;;;;;;;;;;4972492;28;20180;-76
2023/02/19 14:09:39;;;;;;;4.83;2.17;;;;;;;;;;4967142;28;20566;-77
2023/02/19 14:12:13;;;;;;;3.87;1.90;;;;;;;;;;4964390;28;20311;-77
2023/02/19 14:14:48;;;;;;;4.57;2.47;;;;;;;;;;4970478;28;20187;-77
2023/02/19 14:17:33;;;;;;;4.57;1.93;;;;;;;;;;4967416;28;20180;-77
2023/02/19 14:20:21;;;;;;;4.47;2.10;;;;;;;;;;4969213;28;20188;-79
2023/02/19 14:23:10;;;;;;;2.87;1.90;;;;;;;;;;4975144;28;20238;-78
2023/02/19 14:25:38;;;;;;;3.63;2.20;;;;;;;;;;4973665;28;20216;-78
2023/02/19 14:28:09;;;;;;;2.57;1.97;;;;;;;;;;4973580;28;20295;-76
2023/02/19 14:30:42;;;;;;;2.10;1.30;;;;;;;;;;4972541;28;20223;-78
2023/02/19 14:33:08;;;;;;;1.87;1.40;;;;;;;;;;4974668;28;20176;-76
2023/02/19 14:35:36;;;;;;;2.77;1.90;;;;;;;;;;4975626;28;20183;-76
2023/02/19 14:38:02;;;;;;;3.83;1.73;;;;;;;;;;4965423;28;20236;-76
2023/02/19 14:40:38;;;;;;;4.37;1.40;;;;;;;;;;4970114;28;20184;-77
2023/02/19 14:43:04;;;;;;;3.73;1.63;;;;;;;;;;4964303;28;20184;-77
2023/02/19 14:45:40;;;;;;;1.77;1.17;;;;;;;;;;4973723;28;20186;-77
2023/02/19 14:48:05;;;;;;;1.27;0.90;;;;;;;;;;4970010;28;20689;-77
2023/02/19 14:50:31;;;;;;;2.43;1.37;;;;;;;;;;4972851;28;20240;-77
2023/02/19 14:52:58;;;;;;;1.50;1.27;;;;;;;;;;4969422;28;20181;-77
2023/02/19 14:55:29;;;;;;;1.70;1.07;;;;;;;;;;4972887;28;20184;-77
2023/02/19 14:57:55;;;;;;;1.83;1.13;;;;;;;;;;4974284;28;20557;-77
2023/02/19 15:00:20;;;;;;;1.60;1.20;;;;;;;;;;4972654;28;20184;-77
2023/02/19 15:02:47;;;;;;;1.90;1.23;;;;;;;;;;4971240;28;20188;-79
2023/02/19 15:05:16;;;;;;;2.43;1.40;;;;;;;;;;4968137;28;20234;-79
2023/02/19 15:07:41;;;;;;;3.30;1.13;;;;;;;;;;4974278;28;20212;-77
2023/02/19 15:10:08;;;;;;;2.93;1.37;;;;;;;;;;4967996;28;20187;-76
2023/02/19 15:12:39;;;;;;;1.83;1.10;;;;;;;;;;4967756;28;20570;-76
2023/02/19 15:15:05;;;;;;;3.03;1.23;;;;;;;;;;4967860;28;20256;-77